sensor_id;sensor_type;location;lat;lon;timestamp;P1;durP1;ratioP1;P2;durP2;ratioP2
62401;SDS011;48440;51.224;22.506;2023-03-19T00:02:06;8.10;;;5.40;;
62401;SDS011;48440;51.224;22.506;2023-03-19T00:04:33;8.55;;;5.65;;
62401;SDS011;48440;51.224;22.506;2023-03-19T00:06:58;7.82;;;4.93;;
62401;SDS011;48440;51.224;22.506;2023-03-19T00:12:53;10.40;;;5.60;;
62401;SDS011;48440;51.224;22.506;2023-03-19T00:15:34;7.90;;;4.60;;
62401;SDS011;48440;51.224;22.506;2023-03-19T00:18:06;10.55;;;5.20;;
62401;SDS011;48440;51.224;22.506;2023-03-19T00:20:32;5.90;;;4.47;;
62401;SDS011;48440;51.224;22.506;2023-03-19T00:22:58;6.45;;;4.75;;
62401;SDS011;48440;51.224;22.506;2023-03-19T00:25:23;8.27;;;5.10;;
62401;SDS011;48440;51.224;22.506;2023-03-19T00:27:49;8.30;;;5.07;;
62401;SDS011;48440;51.224;22.506;2023-03-19T00:30:14;7.03;;;4.82;;
62401;SDS011;48440;51.224;22.506;2023-03-19T00:32:40;9.00;;;4.82;;
62401;SDS011;48440;51.224;22.506;2023-03-19T00:35:06;8.77;;;5.00;;
62401;SDS011;48440;51.224;22.506;2023-03-19T00:37:33;8.02;;;5.10;;
62401;SDS011;48440;51.224;22.506;2023-03-19T00:39:59;7.35;;;4.63;;
62401;SDS011;48440;51.224;22.506;2023-03-19T00:42:24;9.77;;;5.25;;
62401;SDS011;48440;51.224;22.506;2023-03-19T00:44:50;8.75;;;5.03;;
62401;SDS011;48440;51.224;22.506;2023-03-19T00:47:15;7.57;;;4.88;;
62401;SDS011;48440;51.224;22.506;2023-03-19T00:49:41;8.10;;;5.10;;
62401;SDS011;48440;51.224;22.506;2023-03-19T00:52:06;6.72;;;4.90;;
62401;SDS011;48440;51.224;22.506;2023-03-19T00:54:32;8.00;;;4.93;;
62401;SDS011;48440;51.224;22.506;2023-03-19T00:56:58;6.13;;;4.38;;
62401;SDS011;48440;51.224;22.506;2023-03-19T00:59:24;7.50;;;5.10;;
62401;SDS011;48440;51.224;22.506;2023-03-19T01:01:50;9.98;;;4.88;;
62401;SDS011;48440;51.224;22.506;2023-03-19T01:04:17;7.70;;;4.97;;
62401;SDS011;48440;51.224;22.506;2023-03-19T01:06:43;6.45;;;4.93;;
62401;SDS011;48440;51.224;22.506;2023-03-19T01:09:09;8.75;;;5.53;;
62401;SDS011;48440;51.224;22.506;2023-03-19T01:11:35;8.60;;;5.43;;
62401;SDS011;48440;51.224;22.506;2023-03-19T01:14:01;6.35;;;4.72;;
62401;SDS011;48440;51.224;22.506;2023-03-19T01:16:27;7.72;;;4.90;;
62401;SDS011;48440;51.224;22.506;2023-03-19T01:18:53;7.45;;;4.80;;
62401;SDS011;48440;51.224;22.506;2023-03-19T01:21:19;7.43;;;4.65;;
62401;SDS011;48440;51.224;22.506;2023-03-19T01:23:44;7.85;;;5.18;;
62401;SDS011;48440;51.224;22.506;2023-03-19T01:26:10;7.45;;;4.80;;
62401;SDS011;48440;51.224;22.506;2023-03-19T01:28:37;7.95;;;5.40;;
62401;SDS011;48440;51.224;22.506;2023-03-19T01:31:06;8.40;;;4.75;;
62401;SDS011;48440;51.224;22.506;2023-03-19T01:33:35;7.93;;;4.85;;
62401;SDS011;48440;51.224;22.506;2023-03-19T01:41:12;9.27;;;6.18;;
62401;SDS011;48440;51.224;22.506;2023-03-19T01:43:51;9.07;;;5.30;;
62401;SDS011;48440;51.224;22.506;2023-03-19T01:46:33;7.75;;;4.90;;
62401;SDS011;48440;51.224;22.506;2023-03-19T01:49:20;7.80;;;4.85;;
62401;SDS011;48440;51.224;22.506;2023-03-19T01:52:16;8.45;;;5.38;;
62401;SDS011;48440;51.224;22.506;2023-03-19T02:01:38;8.05;;;5.45;;
62401;SDS011;48440;51.224;22.506;2023-03-19T02:05:11;6.18;;;4.60;;
62401;SDS011;48440;51.224;22.506;2023-03-19T02:07:41;8.20;;;5.07;;
62401;SDS011;48440;51.224;22.506;2023-03-19T02:10:11;7.80;;;5.25;;
62401;SDS011;48440;51.224;22.506;2023-03-19T02:12:38;7.78;;;5.30;;
62401;SDS011;48440;51.224;22.506;2023-03-19T02:15:04;6.53;;;4.80;;
62401;SDS011;48440;51.224;22.506;2023-03-19T02:17:31;7.57;;;5.32;;
62401;SDS011;48440;51.224;22.506;2023-03-19T02:28:11;10.07;;;4.97;;
62401;SDS011;48440;51.224;22.506;2023-03-19T02:30:40;9.20;;;4.88;;
62401;SDS011;48440;51.224;22.506;2023-03-19T02:33:10;7.50;;;4.85;;
62401;SDS011;48440;51.224;22.506;2023-03-19T02:35:37;8.05;;;5.10;;
62401;SDS011;48440;51.224;22.506;2023-03-19T02:38:04;7.47;;;4.93;;
62401;SDS011;48440;51.224;22.506;2023-03-19T02:40:32;6.95;;;4.85;;
62401;SDS011;48440;51.224;22.506;2023-03-19T02:43:01;7.72;;;5.32;;
62401;SDS011;48440;51.224;22.506;2023-03-19T02:45:27;8.00;;;4.90;;
62401;SDS011;48440;51.224;22.506;2023-03-19T02:47:55;9.32;;;4.85;;
62401;SDS011;48440;51.224;22.506;2023-03-19T02:50:20;7.75;;;5.50;;
62401;SDS011;48440;51.224;22.506;2023-03-19T02:52:46;8.18;;;5.13;;
62401;SDS011;48440;51.224;22.506;2023-03-19T02:55:11;8.80;;;5.07;;
62401;SDS011;48440;51.224;22.506;2023-03-19T02:57:37;6.35;;;5.43;;
62401;SDS011;48440;51.224;22.506;2023-03-19T03:00:03;9.35;;;5.22;;
62401;SDS011;48440;51.224;22.506;2023-03-19T03:02:30;7.80;;;5.10;;
62401;SDS011;48440;51.224;22.506;2023-03-19T03:04:56;7.20;;;4.93;;
62401;SDS011;48440;51.224;22.506;2023-03-19T03:07:22;7.35;;;5.18;;
62401;SDS011;48440;51.224;22.506;2023-03-19T03:09:47;7.75;;;5.47;;
62401;SDS011;48440;51.224;22.506;2023-03-19T03:12:13;7.57;;;5.07;;
62401;SDS011;48440;51.224;22.506;2023-03-19T03:14:38;6.90;;;4.72;;
62401;SDS011;48440;51.224;22.506;2023-03-19T03:17:05;8.20;;;5.20;;
62401;SDS011;48440;51.224;22.506;2023-03-19T03:19:32;8.45;;;5.47;;
62401;SDS011;48440;51.224;22.506;2023-03-19T03:21:57;8.45;;;5.15;;
62401;SDS011;48440;51.224;22.506;2023-03-19T03:24:25;7.55;;;5.25;;
62401;SDS011;48440;51.224;22.506;2023-03-19T03:26:50;8.75;;;5.30;;
62401;SDS011;48440;51.224;22.506;2023-03-19T03:29:16;7.82;;;4.88;;
62401;SDS011;48440;51.224;22.506;2023-03-19T03:31:42;8.75;;;5.10;;
62401;SDS011;48440;51.224;22.506;2023-03-19T03:34:07;8.52;;;5.22;;
62401;SDS011;48440;51.224;22.506;2023-03-19T03:36:33;7.10;;;4.93;;
62401;SDS011;48440;51.224;22.506;2023-03-19T03:38:58;7.60;;;5.00;;
62401;SDS011;48440;51.224;22.506;2023-03-19T03:41:24;7.10;;;4.78;;
62401;SDS011;48440;51.224;22.506;2023-03-19T03:43:49;6.63;;;4.55;;
62401;SDS011;48440;51.224;22.506;2023-03-19T03:46:15;7.18;;;4.40;;
62401;SDS011;48440;51.224;22.506;2023-03-19T03:48:40;6.75;;;4.38;;
62401;SDS011;48440;51.224;22.506;2023-03-19T03:51:06;6.38;;;4.47;;
62401;SDS011;48440;51.224;22.506;2023-03-19T03:53:31;6.50;;;4.65;;
62401;SDS011;48440;51.224;22.506;2023-03-19T03:55:57;8.35;;;4.50;;
62401;SDS011;48440;51.224;22.506;2023-03-19T03:58:22;7.03;;;5.00;;
62401;SDS011;48440;51.224;22.506;2023-03-19T04:00:51;7.63;;;4.82;;
62401;SDS011;48440;51.224;22.506;2023-03-19T04:03:18;8.32;;;5.40;;
62401;SDS011;48440;51.224;22.506;2023-03-19T04:05:44;8.00;;;5.10;;
62401;SDS011;48440;51.224;22.506;2023-03-19T04:08:24;8.10;;;4.82;;
62401;SDS011;48440;51.224;22.506;2023-03-19T04:11:22;8.18;;;4.88;;
62401;SDS011;48440;51.224;22.506;2023-03-19T04:16:56;7.03;;;4.40;;
62401;SDS011;48440;51.224;22.506;2023-03-19T04:19:44;6.30;;;4.40;;
62401;SDS011;48440;51.224;22.506;2023-03-19T04:23:22;6.97;;;4.30;;
62401;SDS011;48440;51.224;22.506;2023-03-19T04:25:50;6.00;;;4.28;;
62401;SDS011;48440;51.224;22.506;2023-03-19T04:28:31;6.78;;;4.68;;
62401;SDS011;48440;51.224;22.506;2023-03-19T04:34:55;7.40;;;4.20;;
62401;SDS011;48440;51.224;22.506;2023-03-19T04:37:30;7.68;;;4.65;;
62401;SDS011;48440;51.224;22.506;2023-03-19T04:40:29;5.88;;;4.30;;
62401;SDS011;48440;51.224;22.506;2023-03-19T04:47:17;7.07;;;4.47;;
62401;SDS011;48440;51.224;22.506;2023-03-19T04:49:43;6.13;;;4.40;;
62401;SDS011;48440;51.224;22.506;2023-03-19T04:52:08;6.25;;;4.32;;
62401;SDS011;48440;51.224;22.506;2023-03-19T04:54:34;6.50;;;4.13;;
62401;SDS011;48440;51.224;22.506;2023-03-19T04:56:59;7.28;;;4.13;;
62401;SDS011;48440;51.224;22.506;2023-03-19T04:59:25;8.48;;;5.10;;
62401;SDS011;48440;51.224;22.506;2023-03-19T05:01:51;7.72;;;4.88;;
62401;SDS011;48440;51.224;22.506;2023-03-19T05:04:16;6.55;;;4.10;;
62401;SDS011;48440;51.224;22.506;2023-03-19T05:06:42;7.80;;;4.60;;
62401;SDS011;48440;51.224;22.506;2023-03-19T05:09:08;8.38;;;4.60;;
62401;SDS011;48440;51.224;22.506;2023-03-19T05:11:33;5.80;;;4.20;;
62401;SDS011;48440;51.224;22.506;2023-03-19T05:13:59;6.90;;;4.60;;
62401;SDS011;48440;51.224;22.506;2023-03-19T05:16:24;5.72;;;4.32;;
62401;SDS011;48440;51.224;22.506;2023-03-19T05:18:52;8.60;;;5.07;;
62401;SDS011;48440;51.224;22.506;2023-03-19T05:21:18;7.05;;;4.38;;
62401;SDS011;48440;51.224;22.506;2023-03-19T05:23:43;6.88;;;4.68;;
62401;SDS011;48440;51.224;22.506;2023-03-19T05:26:09;7.53;;;4.57;;
62401;SDS011;48440;51.224;22.506;2023-03-19T05:28:35;6.43;;;4.60;;
62401;SDS011;48440;51.224;22.506;2023-03-19T05:31:02;6.75;;;4.25;;
62401;SDS011;48440;51.224;22.506;2023-03-19T05:33:28;5.88;;;4.30;;
62401;SDS011;48440;51.224;22.506;2023-03-19T05:35:53;5.72;;;4.05;;
62401;SDS011;48440;51.224;22.506;2023-03-19T05:38:19;6.18;;;4.78;;
62401;SDS011;48440;51.224;22.506;2023-03-19T05:40:44;6.50;;;4.32;;
62401;SDS011;48440;51.224;22.506;2023-03-19T05:43:10;6.10;;;4.30;;
62401;SDS011;48440;51.224;22.506;2023-03-19T05:45:36;6.88;;;4.90;;
62401;SDS011;48440;51.224;22.506;2023-03-19T05:48:02;5.47;;;4.53;;
62401;SDS011;48440;51.224;22.506;2023-03-19T05:50:28;6.20;;;4.70;;
62401;SDS011;48440;51.224;22.506;2023-03-19T05:52:55;7.03;;;4.30;;
62401;SDS011;48440;51.224;22.506;2023-03-19T05:55:21;6.70;;;4.22;;
62401;SDS011;48440;51.224;22.506;2023-03-19T05:57:47;6.95;;;4.50;;
62401;SDS011;48440;51.224;22.506;2023-03-19T06:00:13;7.65;;;4.45;;
62401;SDS011;48440;51.224;22.506;2023-03-19T06:02:40;6.63;;;4.78;;
62401;SDS011;48440;51.224;22.506;2023-03-19T06:05:05;6.78;;;4.70;;
62401;SDS011;48440;51.224;22.506;2023-03-19T06:07:31;7.70;;;4.45;;
62401;SDS011;48440;51.224;22.506;2023-03-19T06:09:56;6.60;;;4.45;;
62401;SDS011;48440;51.224;22.506;2023-03-19T06:12:22;6.68;;;4.85;;
62401;SDS011;48440;51.224;22.506;2023-03-19T06:14:48;6.85;;;4.70;;
62401;SDS011;48440;51.224;22.506;2023-03-19T06:17:14;6.07;;;4.57;;
62401;SDS011;48440;51.224;22.506;2023-03-19T06:19:40;7.20;;;5.07;;
62401;SDS011;48440;51.224;22.506;2023-03-19T06:22:05;7.90;;;5.00;;
62401;SDS011;48440;51.224;22.506;2023-03-19T06:24:31;7.82;;;5.10;;
62401;SDS011;48440;51.224;22.506;2023-03-19T06:26:57;6.78;;;4.63;;
62401;SDS011;48440;51.224;22.506;2023-03-19T06:29:23;8.15;;;5.25;;
62401;SDS011;48440;51.224;22.506;2023-03-19T06:31:49;6.10;;;4.38;;
62401;SDS011;48440;51.224;22.506;2023-03-19T06:34:14;7.47;;;4.90;;
62401;SDS011;48440;51.224;22.506;2023-03-19T06:36:40;6.30;;;4.60;;
62401;SDS011;48440;51.224;22.506;2023-03-19T06:39:05;6.28;;;4.65;;
62401;SDS011;48440;51.224;22.506;2023-03-19T06:41:31;8.43;;;4.43;;
62401;SDS011;48440;51.224;22.506;2023-03-19T06:43:56;6.53;;;4.68;;
62401;SDS011;48440;51.224;22.506;2023-03-19T06:46:22;7.10;;;5.13;;
62401;SDS011;48440;51.224;22.506;2023-03-19T06:48:48;6.38;;;4.70;;
62401;SDS011;48440;51.224;22.506;2023-03-19T06:51:13;6.13;;;4.90;;
62401;SDS011;48440;51.224;22.506;2023-03-19T06:53:38;6.60;;;4.15;;
62401;SDS011;48440;51.224;22.506;2023-03-19T06:56:04;6.50;;;4.50;;
62401;SDS011;48440;51.224;22.506;2023-03-19T06:58:30;5.80;;;4.25;;
62401;SDS011;48440;51.224;22.506;2023-03-19T07:00:55;7.32;;;4.57;;
62401;SDS011;48440;51.224;22.506;2023-03-19T07:03:22;6.00;;;4.13;;
62401;SDS011;48440;51.224;22.506;2023-03-19T07:05:49;6.28;;;4.38;;
62401;SDS011;48440;51.224;22.506;2023-03-19T07:08:15;6.65;;;4.75;;
62401;SDS011;48440;51.224;22.506;2023-03-19T07:10:42;6.75;;;4.43;;
62401;SDS011;48440;51.224;22.506;2023-03-19T07:13:10;5.65;;;3.92;;
62401;SDS011;48440;51.224;22.506;2023-03-19T07:15:36;5.93;;;4.30;;
62401;SDS011;48440;51.224;22.506;2023-03-19T07:18:01;5.95;;;3.95;;
62401;SDS011;48440;51.224;22.506;2023-03-19T07:20:27;7.43;;;4.57;;
62401;SDS011;48440;51.224;22.506;2023-03-19T07:22:53;7.25;;;3.95;;
62401;SDS011;48440;51.224;22.506;2023-03-19T07:25:18;6.15;;;4.40;;
62401;SDS011;48440;51.224;22.506;2023-03-19T07:27:44;6.25;;;4.18;;
62401;SDS011;48440;51.224;22.506;2023-03-19T07:30:10;6.20;;;4.78;;
62401;SDS011;48440;51.224;22.506;2023-03-19T07:32:37;6.10;;;4.22;;
62401;SDS011;48440;51.224;22.506;2023-03-19T07:35:04;6.28;;;4.82;;
62401;SDS011;48440;51.224;22.506;2023-03-19T07:37:31;5.63;;;4.50;;
62401;SDS011;48440;51.224;22.506;2023-03-19T07:39:57;6.22;;;4.40;;
62401;SDS011;48440;51.224;22.506;2023-03-19T07:42:22;6.07;;;4.65;;
62401;SDS011;48440;51.224;22.506;2023-03-19T07:44:48;5.07;;;4.13;;
62401;SDS011;48440;51.224;22.506;2023-03-19T07:47:13;6.45;;;4.40;;
62401;SDS011;48440;51.224;22.506;2023-03-19T07:49:39;6.32;;;4.32;;
62401;SDS011;48440;51.224;22.506;2023-03-19T07:52:05;6.75;;;4.35;;
62401;SDS011;48440;51.224;22.506;2023-03-19T07:54:30;7.15;;;4.50;;
62401;SDS011;48440;51.224;22.506;2023-03-19T07:57:09;6.90;;;4.35;;
62401;SDS011;48440;51.224;22.506;2023-03-19T08:42:59;5.90;;;4.10;;
62401;SDS011;48440;51.224;22.506;2023-03-19T08:45:37;5.07;;;4.20;;
62401;SDS011;48440;51.224;22.506;2023-03-19T08:51:12;6.18;;;4.38;;
62401;SDS011;48440;51.224;22.506;2023-03-19T08:53:38;5.32;;;4.35;;
62401;SDS011;48440;51.224;22.506;2023-03-19T08:59:07;6.78;;;5.25;;
62401;SDS011;48440;51.224;22.506;2023-03-19T09:01:51;5.75;;;4.70;;
62401;SDS011;48440;51.224;22.506;2023-03-19T09:04:18;5.82;;;4.65;;
62401;SDS011;48440;51.224;22.506;2023-03-19T09:06:47;7.38;;;5.25;;
62401;SDS011;48440;51.224;22.506;2023-03-19T09:09:17;7.13;;;5.00;;
62401;SDS011;48440;51.224;22.506;2023-03-19T09:11:43;7.57;;;5.30;;
62401;SDS011;48440;51.224;22.506;2023-03-19T09:14:08;6.93;;;5.03;;
62401;SDS011;48440;51.224;22.506;2023-03-19T09:16:36;6.45;;;4.80;;
62401;SDS011;48440;51.224;22.506;2023-03-19T09:19:04;6.07;;;4.95;;
62401;SDS011;48440;51.224;22.506;2023-03-19T09:21:30;7.90;;;4.43;;
62401;SDS011;48440;51.224;22.506;2023-03-19T09:23:56;6.60;;;4.97;;
62401;SDS011;48440;51.224;22.506;2023-03-19T09:26:21;6.97;;;5.13;;
62401;SDS011;48440;51.224;22.506;2023-03-19T09:28:47;6.88;;;5.22;;
62401;SDS011;48440;51.224;22.506;2023-03-19T09:31:12;7.28;;;4.68;;
62401;SDS011;48440;51.224;22.506;2023-03-19T09:33:38;5.53;;;4.63;;
62401;SDS011;48440;51.224;22.506;2023-03-19T09:36:03;5.97;;;4.63;;
62401;SDS011;48440;51.224;22.506;2023-03-19T09:38:29;6.78;;;4.55;;
62401;SDS011;48440;51.224;22.506;2023-03-19T09:41:16;7.93;;;4.75;;
62401;SDS011;48440;51.224;22.506;2023-03-19T09:44:02;5.13;;;4.15;;
62401;SDS011;48440;51.224;22.506;2023-03-19T09:46:30;5.60;;;4.25;;
62401;SDS011;48440;51.224;22.506;2023-03-19T09:49:05;5.72;;;4.57;;
62401;SDS011;48440;51.224;22.506;2023-03-19T09:51:45;8.25;;;4.95;;
62401;SDS011;48440;51.224;22.506;2023-03-19T09:57:07;5.78;;;4.63;;
62401;SDS011;48440;51.224;22.506;2023-03-19T09:59:34;7.82;;;4.75;;
62401;SDS011;48440;51.224;22.506;2023-03-19T10:07:40;5.88;;;4.20;;
62401;SDS011;48440;51.224;22.506;2023-03-19T10:16:03;5.60;;;4.13;;
62401;SDS011;48440;51.224;22.506;2023-03-19T10:18:35;6.70;;;4.20;;
62401;SDS011;48440;51.224;22.506;2023-03-19T10:21:10;5.07;;;4.20;;
62401;SDS011;48440;51.224;22.506;2023-03-19T10:26:09;5.28;;;4.63;;
62401;SDS011;48440;51.224;22.506;2023-03-19T10:28:38;5.43;;;4.63;;
62401;SDS011;48440;51.224;22.506;2023-03-19T10:36:38;5.53;;;4.53;;
62401;SDS011;48440;51.224;22.506;2023-03-19T10:39:04;5.25;;;4.50;;
62401;SDS011;48440;51.224;22.506;2023-03-19T10:41:37;7.07;;;4.40;;
62401;SDS011;48440;51.224;22.506;2023-03-19T10:44:20;6.25;;;5.15;;
62401;SDS011;48440;51.224;22.506;2023-03-19T10:46:53;5.60;;;4.53;;
62401;SDS011;48440;51.224;22.506;2023-03-19T10:49:21;7.07;;;4.90;;
62401;SDS011;48440;51.224;22.506;2023-03-19T10:51:47;5.80;;;4.88;;
62401;SDS011;48440;51.224;22.506;2023-03-19T10:54:26;5.90;;;4.60;;
62401;SDS011;48440;51.224;22.506;2023-03-19T10:56:56;5.28;;;4.50;;
62401;SDS011;48440;51.224;22.506;2023-03-19T11:01:55;5.38;;;4.57;;
62401;SDS011;48440;51.224;22.506;2023-03-19T11:04:22;7.13;;;5.10;;
62401;SDS011;48440;51.224;22.506;2023-03-19T11:07:01;6.50;;;5.10;;
62401;SDS011;48440;51.224;22.506;2023-03-19T11:09:33;5.80;;;5.07;;
62401;SDS011;48440;51.224;22.506;2023-03-19T11:14:55;7.30;;;5.20;;
62401;SDS011;48440;51.224;22.506;2023-03-19T11:23:25;6.57;;;5.47;;
62401;SDS011;48440;51.224;22.506;2023-03-19T12:12:27;6.00;;;4.50;;
62401;SDS011;48440;51.224;22.506;2023-03-19T12:17:50;5.97;;;4.68;;
62401;SDS011;48440;51.224;22.506;2023-03-19T12:20:30;6.20;;;4.80;;
62401;SDS011;48440;51.224;22.506;2023-03-19T12:28:12;5.20;;;4.70;;
62401;SDS011;48440;51.224;22.506;2023-03-19T12:33:51;7.00;;;4.70;;
62401;SDS011;48440;51.224;22.506;2023-03-19T12:36:30;5.80;;;4.88;;
62401;SDS011;48440;51.224;22.506;2023-03-19T12:39:01;5.78;;;4.97;;
62401;SDS011;48440;51.224;22.506;2023-03-19T12:41:31;5.35;;;4.80;;
62401;SDS011;48440;51.224;22.506;2023-03-19T12:46:31;6.78;;;4.97;;
62401;SDS011;48440;51.224;22.506;2023-03-19T12:49:05;6.65;;;4.78;;
62401;SDS011;48440;51.224;22.506;2023-03-19T12:51:38;6.20;;;5.40;;
62401;SDS011;48440;51.224;22.506;2023-03-19T12:54:17;6.35;;;4.80;;
62401;SDS011;48440;51.224;22.506;2023-03-19T13:02:49;5.80;;;4.75;;
62401;SDS011;48440;51.224;22.506;2023-03-19T13:05:31;6.47;;;4.90;;
62401;SDS011;48440;51.224;22.506;2023-03-19T13:10:35;6.38;;;4.50;;
62401;SDS011;48440;51.224;22.506;2023-03-19T13:13:05;5.32;;;4.28;;
62401;SDS011;48440;51.224;22.506;2023-03-19T13:15:41;5.53;;;4.40;;
62401;SDS011;48440;51.224;22.506;2023-03-19T13:24:04;5.30;;;4.28;;
62401;SDS011;48440;51.224;22.506;2023-03-19T13:26:39;6.20;;;4.40;;
62401;SDS011;48440;51.224;22.506;2023-03-19T13:31:33;5.10;;;4.25;;
62401;SDS011;48440;51.224;22.506;2023-03-19T13:34:03;5.53;;;4.45;;
62401;SDS011;48440;51.224;22.506;2023-03-19T13:36:34;5.57;;;4.45;;
62401;SDS011;48440;51.224;22.506;2023-03-19T13:39:03;5.80;;;4.55;;
62401;SDS011;48440;51.224;22.506;2023-03-19T13:46:53;5.25;;;4.05;;
62401;SDS011;48440;51.224;22.506;2023-03-19T13:51:44;4.55;;;3.78;;
62401;SDS011;48440;51.224;22.506;2023-03-19T13:56:55;4.80;;;4.03;;
62401;SDS011;48440;51.224;22.506;2023-03-19T13:59:31;5.03;;;4.15;;
62401;SDS011;48440;51.224;22.506;2023-03-19T14:01:58;5.75;;;4.20;;
62401;SDS011;48440;51.224;22.506;2023-03-19T14:04:26;5.38;;;4.45;;
62401;SDS011;48440;51.224;22.506;2023-03-19T14:07:08;6.55;;;5.22;;
62401;SDS011;48440;51.224;22.506;2023-03-19T14:09:46;6.45;;;5.00;;
62401;SDS011;48440;51.224;22.506;2023-03-19T14:19:48;6.20;;;4.60;;
62401;SDS011;48440;51.224;22.506;2023-03-19T14:24:40;5.60;;;4.60;;
62401;SDS011;48440;51.224;22.506;2023-03-19T14:27:31;6.22;;;5.18;;
62401;SDS011;48440;51.224;22.506;2023-03-19T14:30:01;6.72;;;4.80;;
62401;SDS011;48440;51.224;22.506;2023-03-19T14:32:35;6.03;;;4.45;;
62401;SDS011;48440;51.224;22.506;2023-03-19T14:35:06;5.50;;;4.60;;
62401;SDS011;48440;51.224;22.506;2023-03-19T14:43:07;5.95;;;4.30;;
62401;SDS011;48440;51.224;22.506;2023-03-19T14:46:03;6.78;;;4.40;;
62401;SDS011;48440;51.224;22.506;2023-03-19T14:51:38;5.88;;;4.40;;
62401;SDS011;48440;51.224;22.506;2023-03-19T14:57:18;5.20;;;4.10;;
62401;SDS011;48440;51.224;22.506;2023-03-19T14:59:54;5.10;;;4.25;;
62401;SDS011;48440;51.224;22.506;2023-03-19T15:02:31;6.18;;;4.28;;
62401;SDS011;48440;51.224;22.506;2023-03-19T15:05:01;7.32;;;5.00;;
62401;SDS011;48440;51.224;22.506;2023-03-19T15:07:32;5.97;;;4.07;;
62401;SDS011;48440;51.224;22.506;2023-03-19T15:10:06;5.38;;;4.53;;
62401;SDS011;48440;51.224;22.506;2023-03-19T15:18:03;4.93;;;3.92;;
62401;SDS011;48440;51.224;22.506;2023-03-19T15:20:44;6.82;;;4.10;;
62401;SDS011;48440;51.224;22.506;2023-03-19T15:23:16;5.43;;;3.95;;
62401;SDS011;48440;51.224;22.506;2023-03-19T15:25:44;5.65;;;4.18;;
62401;SDS011;48440;51.224;22.506;2023-03-19T15:28:12;5.13;;;4.10;;
62401;SDS011;48440;51.224;22.506;2023-03-19T15:30:39;5.53;;;3.97;;
62401;SDS011;48440;51.224;22.506;2023-03-19T15:33:21;5.53;;;4.07;;
62401;SDS011;48440;51.224;22.506;2023-03-19T15:36:07;4.72;;;3.65;;
62401;SDS011;48440;51.224;22.506;2023-03-19T15:41:22;5.57;;;3.80;;
62401;SDS011;48440;51.224;22.506;2023-03-19T15:43:49;5.00;;;4.07;;
62401;SDS011;48440;51.224;22.506;2023-03-19T15:46:17;6.25;;;4.13;;
62401;SDS011;48440;51.224;22.506;2023-03-19T15:48:49;5.25;;;4.15;;
62401;SDS011;48440;51.224;22.506;2023-03-19T15:51:19;5.88;;;4.70;;
62401;SDS011;48440;51.224;22.506;2023-03-19T15:53:47;5.35;;;4.15;;
62401;SDS011;48440;51.224;22.506;2023-03-19T15:56:13;5.90;;;4.43;;
62401;SDS011;48440;51.224;22.506;2023-03-19T15:58:43;5.55;;;4.50;;
62401;SDS011;48440;51.224;22.506;2023-03-19T16:01:11;7.10;;;4.97;;
62401;SDS011;48440;51.224;22.506;2023-03-19T16:03:40;6.97;;;4.50;;
62401;SDS011;48440;51.224;22.506;2023-03-19T16:06:28;7.70;;;4.72;;
62401;SDS011;48440;51.224;22.506;2023-03-19T16:09:05;8.88;;;4.55;;
62401;SDS011;48440;51.224;22.506;2023-03-19T16:11:43;6.13;;;5.10;;
62401;SDS011;48440;51.224;22.506;2023-03-19T16:14:16;5.72;;;4.88;;
62401;SDS011;48440;51.224;22.506;2023-03-19T16:21:52;6.93;;;5.00;;
62401;SDS011;48440;51.224;22.506;2023-03-19T16:24:21;6.15;;;4.93;;
62401;SDS011;48440;51.224;22.506;2023-03-19T16:26:48;6.72;;;5.30;;
62401;SDS011;48440;51.224;22.506;2023-03-19T16:29:22;7.78;;;5.10;;
62401;SDS011;48440;51.224;22.506;2023-03-19T16:37:27;7.45;;;5.00;;
62401;SDS011;48440;51.224;22.506;2023-03-19T16:47:40;9.32;;;5.50;;
62401;SDS011;48440;51.224;22.506;2023-03-19T16:50:07;8.38;;;5.75;;
62401;SDS011;48440;51.224;22.506;2023-03-19T16:52:33;8.75;;;6.25;;
62401;SDS011;48440;51.224;22.506;2023-03-19T16:55:00;8.23;;;6.00;;
62401;SDS011;48440;51.224;22.506;2023-03-19T16:57:27;9.02;;;6.13;;
62401;SDS011;48440;51.224;22.506;2023-03-19T16:59:52;9.45;;;6.22;;
62401;SDS011;48440;51.224;22.506;2023-03-19T17:02:18;8.40;;;6.00;;
62401;SDS011;48440;51.224;22.506;2023-03-19T17:04:44;7.63;;;5.85;;
62401;SDS011;48440;51.224;22.506;2023-03-19T17:07:10;8.20;;;6.00;;
62401;SDS011;48440;51.224;22.506;2023-03-19T17:09:35;7.53;;;6.20;;
62401;SDS011;48440;51.224;22.506;2023-03-19T17:12:01;10.32;;;6.30;;
62401;SDS011;48440;51.224;22.506;2023-03-19T17:14:29;9.73;;;5.95;;
62401;SDS011;48440;51.224;22.506;2023-03-19T17:16:55;12.90;;;6.15;;
62401;SDS011;48440;51.224;22.506;2023-03-19T17:19:24;10.23;;;6.50;;
62401;SDS011;48440;51.224;22.506;2023-03-19T17:21:56;11.50;;;6.57;;
62401;SDS011;48440;51.224;22.506;2023-03-19T17:24:32;10.77;;;7.07;;
62401;SDS011;48440;51.224;22.506;2023-03-19T17:26:59;8.82;;;7.43;;
62401;SDS011;48440;51.224;22.506;2023-03-19T17:29:26;10.82;;;7.38;;
62401;SDS011;48440;51.224;22.506;2023-03-19T17:31:53;12.95;;;7.95;;
62401;SDS011;48440;51.224;22.506;2023-03-19T17:34:21;12.25;;;8.82;;
62401;SDS011;48440;51.224;22.506;2023-03-19T17:36:51;11.82;;;9.60;;
62401;SDS011;48440;51.224;22.506;2023-03-19T17:39:19;12.13;;;9.75;;
62401;SDS011;48440;51.224;22.506;2023-03-19T17:41:45;14.57;;;10.70;;
62401;SDS011;48440;51.224;22.506;2023-03-19T17:44:11;15.43;;;10.80;;
62401;SDS011;48440;51.224;22.506;2023-03-19T17:46:39;17.63;;;10.70;;
62401;SDS011;48440;51.224;22.506;2023-03-19T17:49:10;13.95;;;10.70;;
62401;SDS011;48440;51.224;22.506;2023-03-19T17:51:40;15.93;;;11.40;;
62401;SDS011;48440;51.224;22.506;2023-03-19T17:54:08;15.63;;;10.77;;
62401;SDS011;48440;51.224;22.506;2023-03-19T17:56:35;12.23;;;10.23;;
62401;SDS011;48440;51.224;22.506;2023-03-19T17:59:01;14.45;;;11.20;;
62401;SDS011;48440;51.224;22.506;2023-03-19T18:01:26;14.23;;;10.82;;
62401;SDS011;48440;51.224;22.506;2023-03-19T18:03:52;15.43;;;11.40;;
62401;SDS011;48440;51.224;22.506;2023-03-19T18:06:20;18.77;;;12.18;;
62401;SDS011;48440;51.224;22.506;2023-03-19T18:08:48;16.70;;;11.82;;
62401;SDS011;48440;51.224;22.506;2023-03-19T18:11:13;19.52;;;12.07;;
62401;SDS011;48440;51.224;22.506;2023-03-19T18:13:39;17.85;;;11.77;;
62401;SDS011;48440;51.224;22.506;2023-03-19T18:21:16;16.85;;;12.63;;
62401;SDS011;48440;51.224;22.506;2023-03-19T18:23:41;14.90;;;10.18;;
62401;SDS011;48440;51.224;22.506;2023-03-19T18:26:07;13.05;;;8.98;;
62401;SDS011;48440;51.224;22.506;2023-03-19T18:28:33;13.73;;;9.38;;
62401;SDS011;48440;51.224;22.506;2023-03-19T18:30:58;14.13;;;11.18;;
62401;SDS011;48440;51.224;22.506;2023-03-19T18:33:26;13.40;;;10.82;;
62401;SDS011;48440;51.224;22.506;2023-03-19T18:35:54;16.90;;;11.80;;
62401;SDS011;48440;51.224;22.506;2023-03-19T18:38:21;19.02;;;11.25;;
62401;SDS011;48440;51.224;22.506;2023-03-19T18:40:49;16.20;;;10.95;;
62401;SDS011;48440;51.224;22.506;2023-03-19T18:43:16;16.42;;;12.05;;
62401;SDS011;48440;51.224;22.506;2023-03-19T18:45:42;20.35;;;13.10;;
62401;SDS011;48440;51.224;22.506;2023-03-19T18:48:28;20.80;;;14.27;;
62401;SDS011;48440;51.224;22.506;2023-03-19T18:50:57;23.42;;;15.57;;
62401;SDS011;48440;51.224;22.506;2023-03-19T18:53:25;21.95;;;13.15;;
62401;SDS011;48440;51.224;22.506;2023-03-19T18:55:51;16.65;;;11.93;;
62401;SDS011;48440;51.224;22.506;2023-03-19T18:58:21;19.15;;;12.60;;
62401;SDS011;48440;51.224;22.506;2023-03-19T19:00:49;18.98;;;11.25;;
62401;SDS011;48440;51.224;22.506;2023-03-19T19:03:16;17.73;;;12.65;;